createdAt,value
2022-11-13T00:02:20.981Z,83.25
2022-11-13T00:05:12.098Z,82.64
2022-11-13T00:07:59.650Z,83.11
2022-11-13T00:10:49.605Z,82.45
2022-11-13T00:13:36.974Z,83.15
2022-11-13T00:16:24.966Z,82.97
2022-11-13T00:19:12.952Z,83.35
2022-11-13T00:22:02.700Z,82.87
2022-11-13T00:24:52.408Z,83.07
2022-11-13T00:27:42.484Z,82.54
2022-11-13T00:30:30.325Z,83.14
2022-11-13T00:33:37.961Z,83.05
2022-11-13T00:36:27.556Z,83.03
2022-11-13T00:39:18.221Z,83.12
2022-11-13T00:42:06.162Z,82.96
2022-11-13T00:44:53.696Z,83.20
2022-11-13T00:47:48.771Z,82.93
2022-11-13T00:50:36.428Z,83.22
2022-11-13T00:53:24.056Z,83.28
2022-11-13T00:56:17.312Z,83.30
2022-11-13T00:59:06.556Z,83.35
2022-11-13T01:01:54.430Z,83.58
2022-11-13T01:04:43.684Z,83.01
2022-11-13T01:07:31.186Z,82.69
2022-11-13T01:10:20.434Z,83.42
2022-11-13T01:13:10.458Z,83.12
2022-11-13T01:16:02.476Z,83.29
2022-11-13T01:18:53.936Z,83.46
2022-11-13T01:21:41.731Z,83.24
2022-11-13T01:24:29.438Z,83.58
2022-11-13T01:27:17.440Z,83.38
2022-11-13T01:30:10.846Z,83.42
2022-11-13T01:32:58.810Z,83.26
2022-11-13T01:35:47.282Z,83.12
2022-11-13T01:38:37.295Z,83.50
2022-11-13T01:41:27.225Z,82.96
2022-11-13T01:44:17.500Z,83.45
2022-11-13T01:47:08.772Z,83.24
2022-11-13T01:50:00.850Z,83.61
2022-11-13T01:52:50.591Z,83.21
2022-11-13T01:55:38.387Z,83.57
2022-11-13T01:58:27.819Z,83.55
2022-11-13T02:01:15.671Z,83.21
2022-11-13T02:04:05.815Z,83.39
2022-11-13T02:06:56.299Z,83.73
2022-11-13T02:09:47.514Z,83.59
2022-11-13T02:12:38.250Z,83.57
2022-11-13T02:15:32.925Z,83.90
2022-11-13T02:18:21.440Z,83.66
2022-11-13T02:21:22.621Z,83.52
2022-11-13T02:24:21.611Z,83.53
2022-11-13T02:27:15.862Z,83.68
2022-11-13T02:30:22.057Z,83.99
2022-11-13T02:33:23.701Z,83.06
2022-11-13T02:36:25.425Z,83.81
2022-11-13T02:39:14.038Z,83.23
2022-11-13T02:42:01.445Z,83.55
2022-11-13T02:44:51.577Z,83.20
2022-11-13T02:47:39.065Z,83.91
2022-11-13T02:50:28.332Z,83.54
2022-11-13T02:53:18.570Z,84.00
2022-11-13T02:56:07.260Z,83.71
2022-11-13T02:58:57.206Z,83.84
2022-11-13T03:01:45.235Z,83.41
2022-11-13T03:05:05.177Z,83.69
2022-11-13T03:07:43.308Z,83.52
2022-11-13T03:10:31.351Z,83.50
2022-11-13T03:13:19.460Z,84.09
2022-11-13T03:16:12.385Z,84.16
2022-11-13T03:18:59.755Z,83.85
2022-11-13T03:21:50.144Z,84.11
2022-11-13T03:24:38.026Z,83.55
2022-11-13T03:27:25.347Z,83.77
2022-11-13T03:30:13.788Z,83.76
2022-11-13T03:33:02.211Z,83.44
2022-11-13T03:35:52.901Z,84.17
2022-11-13T03:38:40.544Z,83.40
2022-11-13T03:41:30.184Z,84.03
2022-11-13T03:44:17.715Z,83.85
2022-11-13T03:47:05.324Z,83.90
2022-11-13T03:49:53.012Z,84.25
2022-11-13T03:52:40.622Z,83.90
2022-11-13T03:55:28.363Z,83.60
2022-11-13T03:58:16.645Z,84.15
2022-11-13T04:01:04.389Z,83.96
2022-11-13T04:03:51.831Z,83.62
2022-11-13T04:06:39.519Z,84.41
2022-11-13T04:09:27.695Z,83.60
2022-11-13T04:12:19.904Z,84.04
2022-11-13T04:15:10.893Z,84.06
2022-11-13T04:18:01.428Z,83.68
2022-11-13T04:20:50.886Z,84.28
2022-11-13T04:23:38.546Z,84.05
2022-11-13T04:26:26.211Z,84.03
2022-11-13T04:29:17.909Z,83.47
2022-11-13T04:32:06.555Z,84.09
2022-11-13T04:34:53.785Z,83.80
2022-11-13T04:37:41.210Z,83.77
2022-11-13T04:40:31.662Z,83.73
2022-11-13T04:43:23.734Z,83.65
2022-11-13T04:46:25.401Z,83.91
2022-11-13T04:49:15.583Z,83.65
2022-11-13T04:52:03.269Z,84.41
2022-11-13T04:54:53.539Z,84.11
2022-11-13T04:57:41.871Z,84.11
2022-11-13T05:00:29.963Z,84.03
2022-11-13T05:03:18.480Z,84.14
2022-11-13T05:06:08.313Z,83.93
2022-11-13T05:08:55.668Z,84.00
2022-11-13T05:11:43.758Z,84.32
2022-11-13T05:14:31.497Z,83.94
2022-11-13T05:17:18.864Z,84.15
2022-11-13T05:20:08.703Z,84.53
2022-11-13T05:22:56.777Z,84.48
2022-11-13T05:25:47.937Z,83.68
2022-11-13T05:28:39.685Z,83.79
2022-11-13T05:31:28.128Z,84.30
2022-11-13T05:34:15.936Z,83.88
2022-11-13T05:37:05.708Z,83.83
2022-11-13T05:39:54.088Z,84.47
2022-11-13T05:42:41.564Z,84.41
2022-11-13T05:45:31.754Z,84.11
2022-11-13T05:48:20.583Z,84.28
2022-11-13T05:51:11.915Z,84.30
2022-11-13T05:54:00.087Z,84.35
2022-11-13T05:56:49.660Z,84.42
2022-11-13T05:59:42.172Z,84.24
2022-11-13T06:02:29.625Z,84.05
2022-11-13T06:05:17.237Z,84.33
2022-11-13T06:08:07.958Z,84.63
2022-11-13T06:10:59.943Z,84.27
2022-11-13T06:13:49.904Z,84.11
2022-11-13T06:16:40.857Z,84.47
2022-11-13T06:19:28.838Z,84.44
2022-11-13T06:22:16.958Z,84.26
2022-11-13T06:25:06.446Z,84.30
2022-11-13T06:27:56.955Z,84.55
2022-11-13T06:30:44.457Z,84.36
2022-11-13T06:33:36.478Z,84.34
2022-11-13T06:36:27.170Z,84.65
2022-11-13T06:39:15.426Z,84.36
2022-11-13T06:42:06.540Z,84.22
2022-11-13T06:44:54.065Z,84.44
2022-11-13T06:47:41.637Z,84.41
2022-11-13T06:50:32.789Z,84.25
2022-11-13T06:53:21.466Z,84.59
2022-11-13T06:56:10.414Z,84.27
2022-11-13T06:58:59.980Z,83.85
2022-11-13T07:01:51.314Z,84.33
2022-11-13T07:04:39.050Z,84.48
2022-11-13T07:07:26.894Z,84.07
2022-11-13T07:10:18.446Z,83.90
2022-11-13T07:13:06.769Z,83.82
2022-11-13T07:16:05.843Z,84.62
2022-11-13T07:19:01.267Z,84.67
2022-11-13T07:21:51.126Z,83.81
2022-11-13T07:24:38.477Z,84.59
2022-11-13T07:27:26.148Z,83.91
2022-11-13T07:30:14.363Z,83.69
2022-11-13T07:33:08.167Z,83.93
2022-11-13T07:35:57.538Z,84.28
2022-11-13T07:38:57.885Z,84.31
2022-11-13T07:41:56.873Z,84.42
2022-11-13T07:44:59.910Z,84.10
2022-11-13T07:47:49.118Z,83.93
2022-11-13T07:50:39.715Z,84.04
2022-11-13T07:53:30.582Z,84.30
2022-11-13T07:56:24.140Z,83.54
2022-11-13T07:59:11.453Z,84.29
2022-11-13T08:01:59.460Z,83.65
2022-11-13T08:04:50.621Z,84.45
2022-11-13T08:07:38.055Z,84.32
2022-11-13T08:10:30.590Z,84.29
2022-11-13T08:13:19.682Z,84.25
2022-11-13T08:16:10.239Z,84.50
2022-11-13T08:19:01.768Z,83.86
2022-11-13T08:21:50.734Z,84.07
2022-11-13T08:24:38.700Z,83.80
2022-11-13T08:27:28.753Z,84.02
2022-11-13T08:30:16.926Z,83.60
2022-11-13T08:33:11.222Z,84.00
2022-11-13T08:36:04.607Z,83.96
2022-11-13T08:38:55.283Z,83.73
2022-11-13T08:41:43.545Z,83.90
2022-11-13T08:44:31.729Z,84.26
2022-11-13T08:47:19.831Z,84.52
2022-11-13T08:50:09.414Z,83.91
2022-11-13T08:53:00.888Z,83.64
2022-11-13T08:55:51.590Z,84.22
2022-11-13T08:58:39.451Z,84.15
2022-11-13T09:01:27.719Z,83.91
2022-11-13T09:04:20.853Z,83.53
2022-11-13T09:07:08.651Z,84.07
2022-11-13T09:09:56.962Z,83.43
2022-11-13T09:12:44.913Z,83.88
2022-11-13T09:15:33.200Z,84.36
2022-11-13T09:18:20.871Z,84.23
2022-11-13T09:21:10.999Z,83.85
2022-11-13T09:23:58.828Z,83.54
2022-11-13T09:26:48.199Z,83.87
2022-11-13T09:29:37.650Z,83.87
2022-11-13T09:32:25.261Z,84.35
2022-11-13T09:35:13.195Z,83.89
2022-11-13T09:38:05.311Z,84.26
2022-11-13T09:41:00.451Z,83.21
2022-11-13T09:43:58.194Z,83.99
2022-11-13T09:46:51.483Z,83.99
2022-11-13T09:49:45.015Z,83.48
2022-11-13T09:52:36.798Z,83.40
2022-11-13T09:55:29.186Z,84.35
2022-11-13T09:58:24.197Z,83.16
2022-11-13T10:01:23.241Z,83.13
2022-11-13T10:04:14.644Z,84.29
2022-11-13T10:07:18.287Z,83.12
2022-11-13T10:10:35.855Z,84.34
2022-11-13T10:13:32.708Z,84.20
2022-11-13T10:16:31.290Z,83.61
2022-11-13T10:19:25.842Z,83.03
2022-11-13T10:22:32.912Z,83.90
2022-11-13T10:25:23.564Z,84.24
2022-11-13T10:28:43.653Z,84.33
2022-11-13T10:31:24.184Z,83.70
2022-11-13T10:34:14.263Z,84.07
2022-11-13T10:37:26.891Z,84.14
2022-11-13T10:40:25.983Z,83.57
2022-11-13T10:43:18.737Z,83.55
2022-11-13T10:46:18.953Z,83.57
2022-11-13T10:49:19.068Z,83.29
2022-11-13T10:52:19.553Z,83.46
2022-11-13T10:55:20.512Z,83.89
2022-11-13T10:58:17.083Z,83.79
2022-11-13T11:01:22.673Z,83.45
2022-11-13T11:04:19.455Z,83.37
2022-11-13T11:07:21.417Z,83.72
2022-11-13T11:10:22.755Z,83.39
2022-11-13T11:13:20.476Z,83.36
2022-11-13T11:16:11.781Z,83.55
2022-11-13T11:19:02.776Z,83.64
2022-11-13T11:22:00.460Z,83.73
2022-11-13T11:24:58.603Z,83.21
2022-11-13T11:27:55.249Z,83.28
2022-11-13T11:30:51.791Z,83.04
2022-11-13T11:33:50.894Z,83.09
2022-11-13T11:36:49.057Z,82.86
2022-11-13T11:39:41.597Z,83.13
2022-11-13T11:42:39.049Z,82.75
2022-11-13T11:45:31.462Z,82.79
2022-11-13T11:48:25.718Z,83.54
2022-11-13T11:51:23.351Z,83.46
2022-11-13T11:54:22.602Z,83.21
2022-11-13T11:57:33.688Z,82.78
2022-11-13T12:00:22.176Z,82.79
2022-11-13T12:03:40.838Z,82.85
2022-11-13T12:06:38.526Z,83.28
2022-11-13T12:09:29.440Z,82.50
2022-11-13T12:12:26.950Z,82.81
2022-11-13T12:15:25.983Z,83.37
2022-11-13T12:18:22.144Z,82.88
2022-11-13T12:21:23.072Z,82.26
2022-11-13T12:24:54.448Z,82.54
2022-11-13T12:27:48.276Z,83.29
2022-11-13T12:30:44.124Z,82.89
2022-11-13T12:33:45.807Z,83.01
2022-11-13T12:36:35.236Z,83.26
2022-11-13T12:39:37.141Z,83.21
2022-11-13T12:42:33.927Z,82.01
2022-11-13T12:45:35.880Z,82.82
2022-11-13T12:48:32.546Z,82.83
2022-11-13T12:51:20.847Z,82.87
2022-11-13T12:54:10.786Z,83.18
2022-11-13T12:57:27.244Z,82.67
2022-11-13T13:00:29.267Z,82.42
2022-11-13T13:03:38.605Z,82.69
2022-11-13T13:06:45.102Z,82.56
2022-11-13T13:09:48.029Z,82.16
2022-11-13T13:12:47.620Z,83.08
2022-11-13T13:15:38.008Z,82.73
2022-11-13T13:18:29.413Z,82.96
2022-11-13T13:21:18.961Z,82.30
2022-11-13T13:24:32.931Z,82.42
2022-11-13T13:27:25.708Z,82.69
2022-11-13T13:30:21.751Z,82.81
2022-11-13T13:33:24.673Z,81.98
2022-11-13T13:36:23.457Z,82.24
2022-11-13T13:39:34.780Z,82.65
2022-11-13T13:42:41.233Z,81.84
2022-11-13T13:45:43.284Z,82.49
2022-11-13T13:48:32.091Z,82.55
2022-11-13T13:51:28.805Z,81.79
2022-11-13T13:54:20.803Z,82.14
2022-11-13T13:57:14.839Z,81.90
2022-11-13T14:00:03.826Z,82.89
2022-11-13T14:02:52.948Z,82.71
2022-11-13T14:05:40.936Z,81.84
2022-11-13T14:08:29.587Z,82.34
2022-11-13T14:11:20.352Z,82.78
2022-11-13T14:14:10.051Z,82.08
2022-11-13T14:17:00.062Z,82.19
2022-11-13T14:19:51.228Z,82.82
2022-11-13T14:22:39.832Z,82.56
2022-11-13T14:25:28.862Z,81.74
2022-11-13T14:28:20.589Z,82.71
2022-11-13T14:31:12.428Z,82.07
2022-11-13T14:34:12.094Z,81.91
2022-11-13T14:37:17.606Z,82.21
2022-11-13T14:40:13.840Z,81.91
2022-11-13T14:43:07.520Z,81.79
2022-11-13T14:45:58.011Z,82.12
2022-11-13T14:48:54.153Z,81.85
2022-11-13T14:51:54.168Z,81.80
2022-11-13T14:55:14.104Z,82.34
2022-11-13T14:57:59.938Z,82.18
2022-11-13T15:00:51.065Z,82.60
2022-11-13T15:03:39.171Z,82.30
2022-11-13T15:06:35.823Z,82.48
2022-11-13T15:09:25.527Z,81.68
2022-11-13T15:12:13.671Z,81.76
2022-11-13T15:15:04.009Z,81.65
2022-11-13T15:17:55.054Z,82.66
2022-11-13T15:20:48.443Z,82.01
2022-11-13T15:23:38.196Z,82.28
2022-11-13T15:26:25.876Z,82.57
2022-11-13T15:29:13.055Z,82.11
2022-11-13T15:32:01.608Z,82.81
2022-11-13T15:34:50.387Z,82.45
2022-11-13T15:37:40.215Z,82.39
2022-11-13T15:40:28.372Z,81.84
2022-11-13T15:43:20.549Z,82.13
2022-11-13T15:46:15.153Z,82.76
2022-11-13T15:49:02.085Z,82.79
2022-11-13T15:51:52.269Z,82.71
2022-11-13T15:54:40.893Z,82.09
2022-11-13T15:57:30.521Z,82.36
2022-11-13T16:00:21.549Z,83.19
2022-11-13T16:03:11.658Z,82.53
2022-11-13T16:06:02.620Z,82.53
2022-11-13T16:08:52.155Z,82.97
2022-11-13T16:11:41.683Z,82.20
2022-11-13T16:14:30.191Z,82.40
2022-11-13T16:17:21.290Z,82.72
2022-11-13T16:20:14.967Z,82.56
2022-11-13T16:23:02.511Z,82.21
2022-11-13T16:25:54.175Z,82.47
2022-11-13T16:31:52.003Z,82.83
2022-11-13T16:34:39.841Z,83.05
2022-11-13T16:37:28.727Z,82.62
2022-11-13T16:40:23.828Z,82.25
2022-11-13T16:43:12.422Z,82.23
2022-11-13T16:46:02.197Z,82.84
2022-11-13T16:48:50.140Z,82.57
2022-11-13T16:51:37.892Z,82.17
2022-11-13T16:54:25.941Z,82.37
2022-11-13T16:57:16.161Z,82.79
2022-11-13T17:00:12.881Z,82.48
2022-11-13T17:03:00.430Z,82.03
2022-11-13T17:05:51.952Z,82.58
2022-11-13T17:08:50.536Z,82.05
2022-11-13T17:11:40.469Z,82.26
2022-11-13T17:14:34.480Z,82.34
2022-11-13T17:17:25.357Z,82.29
2022-11-13T17:20:17.386Z,82.99
2022-11-13T17:23:14.867Z,83.04
2022-11-13T17:26:04.203Z,82.32
2022-11-13T17:28:58.961Z,82.55
2022-11-13T17:31:49.241Z,83.13
2022-11-13T17:34:37.767Z,82.75
2022-11-13T17:37:32.907Z,82.40
2022-11-13T17:40:21.046Z,82.95
2022-11-13T17:43:09.670Z,82.84
2022-11-13T17:46:03.859Z,83.01
2022-11-13T17:48:52.777Z,82.43
2022-11-13T17:51:40.755Z,82.77
2022-11-13T17:54:29.196Z,82.33
2022-11-13T17:57:16.949Z,82.81
2022-11-13T18:00:12.663Z,82.32
2022-11-13T18:03:00.142Z,82.99
2022-11-13T18:05:50.451Z,83.25
2022-11-13T18:08:41.381Z,82.74
2022-11-13T18:11:30.911Z,83.20
2022-11-13T18:14:18.390Z,83.10
2022-11-13T18:17:05.732Z,82.78
2022-11-13T18:20:00.320Z,82.58
2022-11-13T18:22:51.021Z,82.91
2022-11-13T18:25:39.935Z,82.72
2022-11-13T18:28:28.527Z,82.72
2022-11-13T18:31:17.657Z,82.24
2022-11-13T18:34:12.341Z,82.73
2022-11-13T18:37:00.175Z,82.72
2022-11-13T18:39:49.124Z,82.49
2022-11-13T18:42:36.346Z,82.52
2022-11-13T18:45:24.787Z,83.07
2022-11-13T18:48:12.639Z,82.55
2022-11-13T18:51:04.113Z,82.98
2022-11-13T18:53:52.802Z,83.05
2022-11-13T18:56:44.569Z,83.18
2022-11-13T18:59:32.843Z,83.08
2022-11-13T19:02:21.342Z,83.19
2022-11-13T19:05:11.699Z,82.91
2022-11-13T19:08:03.955Z,82.45
2022-11-13T19:10:53.380Z,82.96
2022-11-13T19:13:42.869Z,82.48
2022-11-13T19:16:37.244Z,83.22
2022-11-13T19:19:27.979Z,82.66
2022-11-13T19:22:18.806Z,82.92
2022-11-13T19:25:10.606Z,82.96
2022-11-13T19:28:00.206Z,82.74
2022-11-13T19:30:48.654Z,82.93
2022-11-13T19:33:37.246Z,82.78
2022-11-13T19:36:28.991Z,83.20
2022-11-13T19:39:16.999Z,83.05
2022-11-13T19:42:04.931Z,82.67
2022-11-13T19:44:52.454Z,82.99
2022-11-13T19:47:40.696Z,83.11
2022-11-13T19:50:30.721Z,82.61
2022-11-13T19:53:19.646Z,82.92
2022-11-13T19:56:10.326Z,83.00
2022-11-13T19:58:58.803Z,82.45
2022-11-13T20:01:49.025Z,82.99
2022-11-13T20:04:37.546Z,83.02
2022-11-13T20:07:28.640Z,83.51
2022-11-13T20:10:22.103Z,82.96
2022-11-13T20:13:09.834Z,83.05
2022-11-13T20:16:00.688Z,82.42
2022-11-13T20:18:51.132Z,82.90
2022-11-13T20:21:40.627Z,83.11
2022-11-13T20:24:29.200Z,82.68
2022-11-13T20:27:17.442Z,83.31
2022-11-13T20:30:13.116Z,82.95
2022-11-13T20:33:00.811Z,82.92
2022-11-13T20:35:55.555Z,82.71
2022-11-13T20:38:49.155Z,82.79
2022-11-13T20:41:37.301Z,82.77
2022-11-13T20:44:25.812Z,83.11
2022-11-13T20:47:16.003Z,82.82
2022-11-13T20:50:04.153Z,83.21
2022-11-13T20:52:51.842Z,83.14
2022-11-13T20:55:39.312Z,82.34
2022-11-13T20:58:27.043Z,82.87
2022-11-13T21:01:18.153Z,82.60
2022-11-13T21:04:05.764Z,82.73
2022-11-13T21:06:53.534Z,82.81
2022-11-13T21:09:40.963Z,82.95
2022-11-13T21:12:31.261Z,82.68
2022-11-13T21:15:18.698Z,82.75
2022-11-13T21:18:11.777Z,82.85
2022-11-13T21:21:05.774Z,82.43
2022-11-13T21:23:57.445Z,83.19
2022-11-13T21:26:48.606Z,82.85
2022-11-13T21:29:36.365Z,82.66
2022-11-13T21:32:23.614Z,82.96
2022-11-13T21:35:12.931Z,82.66
2022-11-13T21:38:05.029Z,82.71
2022-11-13T21:41:19.483Z,82.67
2022-11-13T21:44:10.109Z,82.70
2022-11-13T21:46:58.053Z,83.28
2022-11-13T21:49:45.876Z,82.69
2022-11-13T21:52:33.947Z,82.91
2022-11-13T21:55:21.715Z,82.62
2022-11-13T21:58:09.583Z,82.71
2022-11-13T22:00:57.795Z,83.04
2022-11-13T22:03:49.324Z,83.24
2022-11-13T22:06:39.093Z,83.02
2022-11-13T22:09:27.086Z,82.73
2022-11-13T22:12:14.327Z,83.10
2022-11-13T22:15:02.867Z,83.06
2022-11-13T22:17:50.424Z,82.81
2022-11-13T22:20:38.226Z,82.80
2022-11-13T22:23:25.870Z,82.66
2022-11-13T22:26:18.775Z,82.57
2022-11-13T22:29:07.282Z,83.35
2022-11-13T22:31:55.493Z,82.69
2022-11-13T22:34:43.136Z,82.39
2022-11-13T22:37:32.515Z,83.24
2022-11-13T22:40:20.031Z,82.74
2022-11-13T22:43:10.272Z,83.12
2022-11-13T22:46:03.067Z,82.92
2022-11-13T22:48:51.915Z,83.12
2022-11-13T22:51:41.099Z,82.89
2022-11-13T22:54:28.502Z,82.58
2022-11-13T22:57:16.489Z,83.00
2022-11-13T23:00:08.801Z,83.33
2022-11-13T23:02:59.386Z,83.42
2022-11-13T23:05:49.569Z,83.34
2022-11-13T23:08:38.457Z,82.71
2022-11-13T23:11:27.841Z,83.25
2022-11-13T23:14:16.476Z,83.04
2022-11-13T23:17:04.305Z,83.13
2022-11-13T23:19:51.692Z,82.57
2022-11-13T23:22:39.789Z,82.91
2022-11-13T23:25:26.944Z,83.33
2022-11-13T23:28:17.032Z,82.69
2022-11-13T23:31:05.694Z,82.97
2022-11-13T23:33:53.042Z,83.17
2022-11-13T23:36:40.345Z,83.36
2022-11-13T23:39:28.422Z,83.34
2022-11-13T23:42:33.334Z,83.02
2022-11-13T23:45:26.341Z,83.20
2022-11-13T23:48:13.719Z,82.79
2022-11-13T23:51:02.165Z,82.80
2022-11-13T23:53:51.673Z,82.93
2022-11-13T23:56:39.292Z,82.75
2022-11-13T23:59:27.034Z,83.17
